createdAt,value
2023-12-11T00:02:01.502Z,6.81
2023-12-11T00:04:33.809Z,6.77
2023-12-11T00:07:05.776Z,6.77
2023-12-11T00:09:42.060Z,6.76
2023-12-11T00:12:13.980Z,6.73
2023-12-11T00:14:45.862Z,6.75
2023-12-11T00:17:17.793Z,6.74
2023-12-11T00:19:49.611Z,6.79
2023-12-11T00:22:21.398Z,6.82
2023-12-11T00:24:53.305Z,6.84
2023-12-11T00:27:25.176Z,6.83
2023-12-11T00:29:56.991Z,6.82
2023-12-11T00:32:31.196Z,6.80
2023-12-11T00:35:03.223Z,6.83
2023-12-11T00:37:35.131Z,6.85
2023-12-11T00:40:09.297Z,6.85
2023-12-11T00:42:41.246Z,6.86
2023-12-11T00:45:16.640Z,6.84
2023-12-11T00:47:48.461Z,6.85
2023-12-11T00:50:20.450Z,6.88
2023-12-11T00:52:55.271Z,6.90
2023-12-11T00:55:29.344Z,6.92
2023-12-11T00:58:01.396Z,6.94
2023-12-11T01:00:33.311Z,6.92
2023-12-11T01:03:05.336Z,6.94
2023-12-11T01:05:37.845Z,6.95
2023-12-11T01:08:09.976Z,6.92
2023-12-11T01:10:41.818Z,6.90
2023-12-11T01:13:13.673Z,6.91
2023-12-11T01:15:46.599Z,6.92
2023-12-11T01:18:18.782Z,6.89
2023-12-11T01:20:52.155Z,6.89
2023-12-11T01:23:23.944Z,6.87
2023-12-11T01:25:55.696Z,6.89
2023-12-11T01:28:27.522Z,6.90
2023-12-11T01:30:59.395Z,6.95
2023-12-11T01:33:31.515Z,6.99
2023-12-11T01:36:03.696Z,7.01
2023-12-11T01:38:35.797Z,7.05
2023-12-11T01:41:07.700Z,7.07
2023-12-11T01:43:39.772Z,7.12
2023-12-11T01:46:15.237Z,7.16
2023-12-11T01:48:50.179Z,7.20
2023-12-11T01:51:21.956Z,7.19
2023-12-11T01:53:53.898Z,7.22
2023-12-11T01:56:26.347Z,7.26
2023-12-11T01:58:58.450Z,7.31
2023-12-11T02:01:31.614Z,7.35
2023-12-11T02:04:03.854Z,7.37
2023-12-11T02:06:36.041Z,7.40
2023-12-11T02:09:07.889Z,7.34
2023-12-11T02:11:39.736Z,7.36
2023-12-11T02:14:11.535Z,7.35
2023-12-11T02:16:43.308Z,7.34
2023-12-11T02:19:15.282Z,7.31
2023-12-11T02:21:47.581Z,7.30
2023-12-11T02:24:24.349Z,7.30
2023-12-11T02:26:56.139Z,7.33
2023-12-11T02:29:27.985Z,7.34
2023-12-11T02:31:59.855Z,7.35
2023-12-11T02:34:31.790Z,7.30
2023-12-11T02:37:03.739Z,7.28
2023-12-11T02:39:35.550Z,7.22
2023-12-11T02:42:07.384Z,7.22
2023-12-11T02:44:39.164Z,7.21
2023-12-11T02:47:11.004Z,7.20
2023-12-11T02:49:42.816Z,7.17
2023-12-11T02:52:14.663Z,7.18
2023-12-11T02:54:46.535Z,7.19
2023-12-11T02:57:18.449Z,7.13
2023-12-11T02:59:50.236Z,7.10
2023-12-11T03:02:22.118Z,7.07
2023-12-11T03:04:53.981Z,7.06
2023-12-11T03:07:26.961Z,7.02
2023-12-11T03:09:58.833Z,6.99
2023-12-11T03:12:30.622Z,6.89
2023-12-11T03:15:04.407Z,6.90
2023-12-11T03:17:39.756Z,6.89
2023-12-11T03:20:13.012Z,6.81
2023-12-11T03:22:45.437Z,6.78
2023-12-11T03:25:17.318Z,6.73
2023-12-11T03:27:49.168Z,6.72
2023-12-11T03:30:21.039Z,6.72
2023-12-11T03:32:52.929Z,6.73
2023-12-11T03:35:25.583Z,6.77
2023-12-11T03:37:57.383Z,6.75
2023-12-11T03:40:29.226Z,6.74
2023-12-11T03:43:01.703Z,6.74
2023-12-11T03:45:33.678Z,6.74
2023-12-11T03:48:05.844Z,6.74
2023-12-11T03:50:37.775Z,6.75
2023-12-11T03:53:11.506Z,6.73
2023-12-11T03:55:43.385Z,6.73
2023-12-11T03:58:15.242Z,6.70
2023-12-11T04:00:47.202Z,6.68
2023-12-11T04:03:19.075Z,6.66
2023-12-11T04:05:50.988Z,6.67
2023-12-11T04:08:22.792Z,6.64
2023-12-11T04:10:54.573Z,6.64
2023-12-11T04:13:26.341Z,6.61
2023-12-11T04:15:58.239Z,6.62
2023-12-11T04:18:30.466Z,6.66
2023-12-11T04:21:02.472Z,6.65
2023-12-11T04:23:34.799Z,6.64
2023-12-11T04:26:06.703Z,6.64
2023-12-11T04:28:38.474Z,6.61
2023-12-11T04:31:13.168Z,6.61
2023-12-11T04:33:45.105Z,6.61
2023-12-11T04:36:16.985Z,6.61
2023-12-11T04:38:48.858Z,6.61
2023-12-11T04:41:20.761Z,6.63
2023-12-11T04:43:52.813Z,6.67
2023-12-11T04:46:24.628Z,6.63
2023-12-11T04:48:57.788Z,6.60
2023-12-11T04:51:29.656Z,6.62
2023-12-11T04:54:01.524Z,6.64
2023-12-11T04:56:33.385Z,6.67
2023-12-11T04:59:05.245Z,6.68
2023-12-11T05:01:37.234Z,6.67
2023-12-11T05:04:09.126Z,6.67
2023-12-11T05:06:41.042Z,6.67
2023-12-11T05:09:12.922Z,6.68
2023-12-11T05:11:45.841Z,6.66
2023-12-11T05:14:17.705Z,6.65
2023-12-11T05:16:49.499Z,6.66
2023-12-11T05:19:21.481Z,6.69
2023-12-11T05:21:56.719Z,6.72
2023-12-11T05:24:28.843Z,6.71
2023-12-11T05:27:00.651Z,6.73
2023-12-11T05:29:32.432Z,6.72
2023-12-11T05:32:04.659Z,6.71
2023-12-11T05:34:36.482Z,6.70
2023-12-11T05:37:11.286Z,6.67
2023-12-11T05:39:50.416Z,6.66
2023-12-11T05:42:29.309Z,6.67
2023-12-11T05:45:03.645Z,6.72
2023-12-11T05:47:35.486Z,6.69
2023-12-11T05:50:07.624Z,6.69
2023-12-11T05:52:39.436Z,6.69
2023-12-11T05:55:11.451Z,6.68
2023-12-11T05:57:44.976Z,6.69
2023-12-11T06:00:17.939Z,6.69
2023-12-11T06:02:49.844Z,6.69
2023-12-11T06:05:22.032Z,6.70
2023-12-11T06:07:53.894Z,6.75
2023-12-11T06:10:25.779Z,6.75
2023-12-11T06:12:57.709Z,6.75
2023-12-11T06:15:30.535Z,6.77
2023-12-11T06:18:02.573Z,6.77
2023-12-11T06:20:34.508Z,6.79
2023-12-11T06:23:09.285Z,6.82
2023-12-11T06:25:41.037Z,6.83
2023-12-11T06:28:12.846Z,6.81
2023-12-11T06:30:44.828Z,6.81
2023-12-11T06:33:17.687Z,6.81
2023-12-11T06:35:52.947Z,6.79
2023-12-11T06:38:24.724Z,6.79
2023-12-11T06:40:56.594Z,6.77
2023-12-11T06:43:28.510Z,6.73
2023-12-11T06:46:00.337Z,6.72
2023-12-11T06:48:32.380Z,6.70
2023-12-11T06:51:04.482Z,6.72
2023-12-11T06:53:36.947Z,6.71
2023-12-11T06:56:09.332Z,6.73
2023-12-11T06:58:41.131Z,6.73
2023-12-11T07:01:17.168Z,6.75
2023-12-11T07:03:50.227Z,6.79
2023-12-11T07:06:27.944Z,6.79
2023-12-11T07:09:01.097Z,6.84
2023-12-11T07:11:33.260Z,6.87
2023-12-11T07:14:05.183Z,6.94
2023-12-11T07:16:37.285Z,7.02
2023-12-11T07:19:09.664Z,7.07
2023-12-11T07:21:47.492Z,7.17
2023-12-11T07:24:19.343Z,7.77
2023-12-11T07:26:53.339Z,8.78
2023-12-11T07:29:25.151Z,9.10
2023-12-11T07:31:56.975Z,9.65
2023-12-11T07:34:29.087Z,9.69
2023-12-11T07:37:01.263Z,9.86
2023-12-11T07:39:33.139Z,9.91
2023-12-11T07:42:05.321Z,9.82
2023-12-11T07:44:37.668Z,10.60
2023-12-11T07:47:09.641Z,10.96
2023-12-11T07:49:47.504Z,10.94
2023-12-11T07:52:19.763Z,11.07
2023-12-11T07:54:51.687Z,10.78
2023-12-11T07:57:26.334Z,10.44
2023-12-11T08:00:02.457Z,10.13
2023-12-11T08:02:39.362Z,9.93
2023-12-11T08:05:11.710Z,9.68
2023-12-11T08:07:46.817Z,9.39
2023-12-11T08:10:19.142Z,9.15
2023-12-11T08:12:55.031Z,8.87
2023-12-11T08:15:29.023Z,8.66
2023-12-11T08:18:00.916Z,8.47
2023-12-11T08:20:32.771Z,8.49
2023-12-11T08:23:04.709Z,8.53
2023-12-11T08:25:37.072Z,8.51
2023-12-11T08:28:11.687Z,8.48
2023-12-11T08:30:43.542Z,8.46
2023-12-11T08:33:15.566Z,8.52
2023-12-11T08:35:48.645Z,9.78
2023-12-11T08:38:26.950Z,11.26
2023-12-11T08:40:58.760Z,12.59
2023-12-11T08:43:31.664Z,14.22
2023-12-11T08:46:04.876Z,15.47
2023-12-11T08:48:39.781Z,15.80
2023-12-11T08:51:12.174Z,15.32
2023-12-11T08:53:45.970Z,15.01
2023-12-11T08:56:20.823Z,14.96
2023-12-11T08:58:52.800Z,15.72
2023-12-11T09:01:24.700Z,14.55
2023-12-11T09:03:56.651Z,14.11
2023-12-11T09:06:28.555Z,13.81
2023-12-11T09:09:00.464Z,13.20
2023-12-11T09:11:33.720Z,12.64
2023-12-11T09:14:05.544Z,12.26
2023-12-11T09:16:37.332Z,12.02
2023-12-11T09:19:09.979Z,11.78
2023-12-11T09:21:42.466Z,13.19
2023-12-11T09:24:17.316Z,15.06
2023-12-11T09:26:49.230Z,16.91
2023-12-11T09:29:21.182Z,18.59
2023-12-11T09:31:52.969Z,20.09
2023-12-11T09:34:24.958Z,20.97
2023-12-11T09:36:57.626Z,22.15
2023-12-11T09:39:29.558Z,23.16
2023-12-11T09:42:02.973Z,24.05
2023-12-11T09:44:36.346Z,24.40
2023-12-11T09:47:19.844Z,24.93
2023-12-11T09:49:55.165Z,25.57
2023-12-11T09:52:32.692Z,25.90
2023-12-11T09:55:06.400Z,26.00
2023-12-11T09:57:40.901Z,26.27
2023-12-11T10:00:17.350Z,26.86
2023-12-11T10:02:54.453Z,26.65
2023-12-11T10:05:30.119Z,24.78
2023-12-11T10:08:02.387Z,23.05
2023-12-11T10:10:39.592Z,21.77
2023-12-11T10:13:23.818Z,20.60
2023-12-11T10:15:56.820Z,19.72
2023-12-11T10:18:28.766Z,18.21
2023-12-11T10:21:01.076Z,17.56
2023-12-11T10:23:34.398Z,17.32
2023-12-11T10:26:07.458Z,16.68
2023-12-11T10:28:39.327Z,16.27
2023-12-11T10:31:11.443Z,15.75
2023-12-11T10:33:52.193Z,15.06
2023-12-11T10:36:24.136Z,14.72
2023-12-11T10:39:09.374Z,14.11
2023-12-11T10:41:47.136Z,13.83
2023-12-11T10:44:39.927Z,13.41
2023-12-11T10:47:19.551Z,13.35
2023-12-11T10:49:51.627Z,13.63
2023-12-11T10:52:23.547Z,13.45
2023-12-11T10:54:57.352Z,13.26
2023-12-11T10:57:33.481Z,12.95
2023-12-11T11:00:06.345Z,12.70
2023-12-11T11:02:38.739Z,12.39
2023-12-11T11:05:13.100Z,12.15
2023-12-11T11:08:03.703Z,11.86
2023-12-11T11:11:06.299Z,11.51
2023-12-11T11:14:05.906Z,13.10
2023-12-11T11:16:54.242Z,13.25
2023-12-11T11:19:28.647Z,12.64
2023-12-11T11:22:05.218Z,12.36
2023-12-11T11:24:40.209Z,12.34
2023-12-11T11:27:42.555Z,12.26
2023-12-11T11:30:44.028Z,11.87
2023-12-11T11:33:16.277Z,11.55
2023-12-11T11:35:55.191Z,11.48
2023-12-11T11:38:58.883Z,11.38
2023-12-11T11:41:31.367Z,11.42
2023-12-11T11:44:08.353Z,11.46
2023-12-11T11:46:53.653Z,11.33
2023-12-11T11:49:35.540Z,11.25
2023-12-11T11:52:11.415Z,11.06
2023-12-11T11:54:46.416Z,10.91
2023-12-11T11:57:26.905Z,10.88
2023-12-11T11:59:58.797Z,10.86
2023-12-11T12:02:30.520Z,10.89
2023-12-11T12:05:12.858Z,11.29
2023-12-11T12:07:47.911Z,11.41
2023-12-11T12:10:20.630Z,12.16
2023-12-11T12:12:59.012Z,13.55
2023-12-11T12:15:31.112Z,14.43
2023-12-11T12:18:08.316Z,14.19
2023-12-11T12:20:43.200Z,13.60
2023-12-11T12:23:17.682Z,13.46
2023-12-11T12:25:54.335Z,14.62
2023-12-11T12:28:42.130Z,14.55
2023-12-11T12:31:14.125Z,13.79
2023-12-11T12:33:47.815Z,13.59
2023-12-11T12:36:20.364Z,13.44
2023-12-11T12:38:52.373Z,13.09
2023-12-11T12:41:24.205Z,12.85
2023-12-11T12:44:00.075Z,12.53
2023-12-11T12:46:40.974Z,12.25
2023-12-11T12:49:15.364Z,11.95
2023-12-11T12:51:54.698Z,11.75
2023-12-11T12:54:26.612Z,11.61
2023-12-11T12:57:00.159Z,11.53
2023-12-11T12:59:34.092Z,11.48
2023-12-11T13:02:15.810Z,11.42
2023-12-11T13:04:54.653Z,11.32
2023-12-11T13:07:28.406Z,11.24
2023-12-11T13:10:15.226Z,11.19
2023-12-11T13:12:49.900Z,11.14
2023-12-11T13:15:21.823Z,11.09
2023-12-11T13:17:54.845Z,11.07
2023-12-11T13:20:26.784Z,11.06
2023-12-11T13:22:58.966Z,10.98
2023-12-11T13:25:30.819Z,10.91
2023-12-11T13:28:03.220Z,10.89
2023-12-11T13:30:35.079Z,10.87
2023-12-11T13:33:06.984Z,10.84
2023-12-11T13:35:38.827Z,10.79
2023-12-11T13:38:10.858Z,10.79
2023-12-11T13:40:43.172Z,10.72
2023-12-11T13:43:15.252Z,10.61
2023-12-11T13:45:47.131Z,10.58
2023-12-11T13:48:22.016Z,10.59
2023-12-11T13:50:55.646Z,10.56
2023-12-11T13:53:28.384Z,10.51
2023-12-11T13:56:01.336Z,10.50
2023-12-11T13:58:33.650Z,10.52
2023-12-11T14:01:06.030Z,10.54
2023-12-11T14:03:37.948Z,10.54
2023-12-11T14:06:09.804Z,10.51
2023-12-11T14:08:46.651Z,10.54
2023-12-11T14:11:18.524Z,10.54
2023-12-11T14:13:50.270Z,10.50
2023-12-11T14:16:22.372Z,10.44
2023-12-11T14:18:54.376Z,10.46
2023-12-11T14:21:26.227Z,10.43
2023-12-11T14:23:58.052Z,10.45
2023-12-11T14:26:33.094Z,10.43
2023-12-11T14:29:06.908Z,10.42
2023-12-11T14:31:38.837Z,10.35
2023-12-11T14:34:11.024Z,10.30
2023-12-11T14:36:43.227Z,10.26
2023-12-11T14:39:17.826Z,10.19
2023-12-11T14:41:49.690Z,10.15
2023-12-11T14:44:21.518Z,10.12
2023-12-11T14:46:53.431Z,10.08
2023-12-11T14:49:25.405Z,10.05
2023-12-11T14:51:58.196Z,10.05
2023-12-11T14:54:30.102Z,10.04
2023-12-11T14:57:01.901Z,10.04
2023-12-11T14:59:36.276Z,10.01
2023-12-11T15:02:08.197Z,9.98
2023-12-11T15:04:40.141Z,9.98
2023-12-11T15:07:14.803Z,9.97
2023-12-11T15:09:48.038Z,9.90
2023-12-11T15:12:20.158Z,9.88
2023-12-11T15:14:52.360Z,9.83
2023-12-11T15:17:24.129Z,9.80
2023-12-11T15:19:57.264Z,9.75
2023-12-11T15:22:29.278Z,9.73
2023-12-11T15:25:01.155Z,9.70
2023-12-11T15:27:33.470Z,9.70
2023-12-11T15:30:09.479Z,9.69
2023-12-11T15:32:48.412Z,9.68
2023-12-11T15:35:20.715Z,9.65
2023-12-11T15:37:52.841Z,9.67
2023-12-11T15:40:27.421Z,9.68
2023-12-11T15:43:03.176Z,9.69
2023-12-11T15:45:35.024Z,9.68
2023-12-11T15:48:10.179Z,9.70
2023-12-11T15:50:55.382Z,9.70
2023-12-11T15:53:30.037Z,9.68
2023-12-11T15:56:01.884Z,9.69
2023-12-11T15:58:33.695Z,9.70
2023-12-11T16:01:08.031Z,9.71
2023-12-11T16:03:40.423Z,9.70
2023-12-11T16:06:12.412Z,9.71
2023-12-11T16:08:44.251Z,9.70
2023-12-11T16:11:16.447Z,9.70
2023-12-11T16:13:48.233Z,9.69
2023-12-11T16:16:22.717Z,9.70
2023-12-11T16:18:55.018Z,9.68
2023-12-11T16:21:27.560Z,9.71
2023-12-11T16:24:01.020Z,9.69
2023-12-11T16:26:32.858Z,9.72
2023-12-11T16:29:07.479Z,9.82
2023-12-11T16:31:40.039Z,10.00
2023-12-11T16:34:11.933Z,9.98
2023-12-11T16:36:49.532Z,9.90
2023-12-11T16:39:21.593Z,9.86
2023-12-11T16:41:53.448Z,9.86
2023-12-11T16:44:25.305Z,9.83
2023-12-11T16:46:57.083Z,9.83
2023-12-11T16:49:28.990Z,9.82
2023-12-11T16:52:03.017Z,9.86
2023-12-11T16:54:34.776Z,9.89
2023-12-11T16:57:06.881Z,9.92
2023-12-11T16:59:39.921Z,9.95
2023-12-11T17:02:11.955Z,9.94
2023-12-11T17:04:50.798Z,9.95
2023-12-11T17:07:25.723Z,9.97
2023-12-11T17:10:04.347Z,9.96
2023-12-11T17:12:36.476Z,9.98
2023-12-11T17:15:09.311Z,9.96
2023-12-11T17:17:44.048Z,9.93
2023-12-11T17:20:15.799Z,9.93
2023-12-11T17:22:47.606Z,9.89
2023-12-11T17:25:19.465Z,9.88
2023-12-11T17:27:51.636Z,9.87
2023-12-11T17:30:23.801Z,9.84
2023-12-11T17:32:55.784Z,9.81
2023-12-11T17:35:27.668Z,9.80
2023-12-11T17:37:59.922Z,9.83
2023-12-11T17:40:34.789Z,9.79
2023-12-11T17:43:09.536Z,9.77
2023-12-11T17:45:42.662Z,9.73
2023-12-11T17:48:14.708Z,9.71
2023-12-11T17:50:46.505Z,9.68
2023-12-11T17:53:18.398Z,9.64
2023-12-11T17:55:53.785Z,9.62
2023-12-11T17:58:25.677Z,9.59
2023-12-11T18:00:57.631Z,9.59
2023-12-11T18:03:29.415Z,9.54
2023-12-11T18:06:04.387Z,9.47
2023-12-11T18:08:36.458Z,9.44
2023-12-11T18:11:08.294Z,9.41
2023-12-11T18:13:41.096Z,9.41
2023-12-11T18:16:13.281Z,9.36
2023-12-11T18:18:47.289Z,9.34
2023-12-11T18:21:20.323Z,9.30
2023-12-11T18:23:55.445Z,9.26
2023-12-11T18:26:27.237Z,9.27
2023-12-11T18:29:01.872Z,9.20
2023-12-11T18:31:40.137Z,9.19
2023-12-11T18:34:12.133Z,9.18
2023-12-11T18:36:47.068Z,9.15
2023-12-11T18:39:18.831Z,9.14
2023-12-11T18:41:50.641Z,9.09
2023-12-11T18:44:22.377Z,9.07
2023-12-11T18:46:56.486Z,9.03
2023-12-11T18:49:30.002Z,8.97
2023-12-11T18:52:02.030Z,8.96
2023-12-11T18:54:37.962Z,8.96
2023-12-11T18:57:10.419Z,8.94
2023-12-11T18:59:42.264Z,8.91
2023-12-11T19:02:14.784Z,8.89
2023-12-11T19:04:46.861Z,8.86
2023-12-11T19:07:18.743Z,8.85
2023-12-11T19:09:52.918Z,8.86
2023-12-11T19:12:24.820Z,8.85
2023-12-11T19:14:56.902Z,8.81
2023-12-11T19:17:29.443Z,8.84
2023-12-11T19:20:01.585Z,8.84
2023-12-11T19:22:33.455Z,8.81
2023-12-11T19:25:05.776Z,8.82
2023-12-11T19:27:42.758Z,8.80
2023-12-11T19:30:14.672Z,8.77
2023-12-11T19:33:14.825Z,8.79
2023-12-11T19:35:46.673Z,8.79
2023-12-11T19:38:19.536Z,8.74
2023-12-11T19:40:51.349Z,8.74
2023-12-11T19:43:24.981Z,8.73
2023-12-11T19:45:57.410Z,8.74
2023-12-11T19:48:30.077Z,8.72
2023-12-11T19:51:01.878Z,8.70
2023-12-11T19:53:33.673Z,8.65
2023-12-11T19:56:08.119Z,8.67
2023-12-11T19:58:39.914Z,8.63
2023-12-11T20:01:12.054Z,8.61
2023-12-11T20:03:44.245Z,8.61
2023-12-11T20:06:26.406Z,8.58
2023-12-11T20:08:58.745Z,8.55
2023-12-11T20:11:30.919Z,8.56
2023-12-11T20:14:02.734Z,8.56
2023-12-11T20:16:34.908Z,8.55
2023-12-11T20:19:07.674Z,8.53
2023-12-11T20:21:42.582Z,8.51
2023-12-11T20:24:18.521Z,8.55
2023-12-11T20:26:51.151Z,8.52
2023-12-11T20:29:23.096Z,8.48
2023-12-11T20:31:55.362Z,8.48
2023-12-11T20:34:30.177Z,8.44
2023-12-11T20:37:02.041Z,8.48
2023-12-11T20:39:33.938Z,8.45
2023-12-11T20:42:05.958Z,8.44
2023-12-11T20:44:37.841Z,8.46
2023-12-11T20:47:09.924Z,8.44
2023-12-11T20:49:41.808Z,8.39
2023-12-11T20:52:14.016Z,8.39
2023-12-11T20:54:45.923Z,8.41
2023-12-11T20:57:17.744Z,8.46
2023-12-11T20:59:49.578Z,8.46
2023-12-11T21:02:21.315Z,8.50
2023-12-11T21:04:55.387Z,8.50
2023-12-11T21:07:27.301Z,8.55
2023-12-11T21:10:00.066Z,8.56
2023-12-11T21:12:36.001Z,8.59
2023-12-11T21:15:08.026Z,8.65
2023-12-11T21:17:42.524Z,8.61
2023-12-11T21:20:14.722Z,8.60
2023-12-11T21:22:46.581Z,8.60
2023-12-11T21:25:21.285Z,8.58
2023-12-11T21:27:52.997Z,8.53
2023-12-11T21:30:24.778Z,8.51
2023-12-11T21:32:57.740Z,8.51
2023-12-11T21:35:29.571Z,8.51
2023-12-11T21:38:04.583Z,8.52
2023-12-11T21:40:39.027Z,8.51
2023-12-11T21:43:11.336Z,8.52
2023-12-11T21:45:43.113Z,8.50
2023-12-11T21:48:14.975Z,8.48
2023-12-11T21:50:47.362Z,8.43
2023-12-11T21:53:19.140Z,8.36
2023-12-11T21:55:50.955Z,8.36
2023-12-11T21:58:23.054Z,8.32
2023-12-11T22:00:55.086Z,8.28
2023-12-11T22:03:27.108Z,8.26
2023-12-11T22:05:59.126Z,8.25
2023-12-11T22:08:34.082Z,8.21
2023-12-11T22:11:06.267Z,8.18
2023-12-11T22:13:38.090Z,8.19
2023-12-11T22:16:09.877Z,8.15
2023-12-11T22:18:41.851Z,8.14
2023-12-11T22:21:33.922Z,8.11
2023-12-11T22:24:06.339Z,8.07
2023-12-11T22:26:40.763Z,8.07
2023-12-11T22:29:13.600Z,8.06
2023-12-11T22:31:48.190Z,8.06
2023-12-11T22:34:20.054Z,8.05
2023-12-11T22:36:53.688Z,8.03
2023-12-11T22:39:25.497Z,8.03
2023-12-11T22:41:59.281Z,8.03
2023-12-11T22:44:34.203Z,8.03
2023-12-11T22:47:06.082Z,8.04
2023-12-11T22:49:38.704Z,8.05
2023-12-11T22:52:10.708Z,8.07
2023-12-11T22:54:42.678Z,8.08
2023-12-11T22:57:14.415Z,8.09
2023-12-11T22:59:46.249Z,8.10
2023-12-11T23:02:18.825Z,8.10
2023-12-11T23:04:50.783Z,8.08
2023-12-11T23:07:22.677Z,8.06
2023-12-11T23:09:54.487Z,8.03
2023-12-11T23:12:26.385Z,8.04
2023-12-11T23:14:58.485Z,8.04
2023-12-11T23:17:30.945Z,8.04
2023-12-11T23:20:02.928Z,8.01
2023-12-11T23:22:34.825Z,8.02
2023-12-11T23:25:07.186Z,8.03
2023-12-11T23:27:39.581Z,8.03
2023-12-11T23:30:11.526Z,8.03
2023-12-11T23:35:40.000Z,8.06
2023-12-11T23:38:11.828Z,8.11
2023-12-11T23:40:45.893Z,8.14
2023-12-11T23:43:17.704Z,8.16
2023-12-11T23:45:49.652Z,8.19
2023-12-11T23:48:21.460Z,8.25
2023-12-11T23:50:53.735Z,8.28
2023-12-11T23:53:25.550Z,8.32
2023-12-11T23:55:57.877Z,8.35
2023-12-11T23:58:34.026Z,8.36
